sensor_id;sensor_type;location;lat;lon;timestamp;pressure;altitude;pressure_sealevel;temperature;humidity
64294;BME280;50636;45.596;5.258;2023-04-15T00:01:31;97860.22;;;12.26;93.38
64294;BME280;50636;45.596;5.258;2023-04-15T00:03:58;97869.25;;;12.30;93.25
64294;BME280;50636;45.596;5.258;2023-04-15T00:06:24;97868.91;;;12.27;92.89
64294;BME280;50636;45.596;5.258;2023-04-15T00:08:50;97863.75;;;12.32;93.27
64294;BME280;50636;45.596;5.258;2023-04-15T00:11:16;97865.47;;;12.26;91.93
64294;BME280;50636;45.596;5.258;2023-04-15T00:13:43;97863.00;;;12.08;92.12
64294;BME280;50636;45.596;5.258;2023-04-15T00:16:09;97862.41;;;12.06;92.89
64294;BME280;50636;45.596;5.258;2023-04-15T00:18:35;97861.38;;;12.07;93.38
64294;BME280;50636;45.596;5.258;2023-04-15T00:21:02;97867.75;;;12.23;94.17
64294;BME280;50636;45.596;5.258;2023-04-15T00:23:28;97865.91;;;12.35;93.69
64294;BME280;50636;45.596;5.258;2023-04-15T00:25:54;97867.41;;;12.31;93.36
64294;BME280;50636;45.596;5.258;2023-04-15T00:28:20;97870.16;;;12.24;93.88
64294;BME280;50636;45.596;5.258;2023-04-15T00:30:45;97876.47;;;12.11;94.28
64294;BME280;50636;45.596;5.258;2023-04-15T00:33:14;97863.09;;;12.01;95.29
64294;BME280;50636;45.596;5.258;2023-04-15T00:35:40;97863.69;;;11.91;95.18
64294;BME280;50636;45.596;5.258;2023-04-15T00:38:06;97860.88;;;11.74;95.31
64294;BME280;50636;45.596;5.258;2023-04-15T00:40:36;97865.75;;;11.35;94.75
64294;BME280;50636;45.596;5.258;2023-04-15T00:43:02;97869.28;;;11.29;97.30
64294;BME280;50636;45.596;5.258;2023-04-15T00:45:28;97864.63;;;11.31;97.70
64294;BME280;50636;45.596;5.258;2023-04-15T00:47:54;97867.78;;;11.22;97.51
64294;BME280;50636;45.596;5.258;2023-04-15T00:50:21;97860.41;;;11.00;96.06
64294;BME280;50636;45.596;5.258;2023-04-15T00:52:47;97857.41;;;10.85;95.96
64294;BME280;50636;45.596;5.258;2023-04-15T00:55:14;97858.56;;;10.89;97.30
64294;BME280;50636;45.596;5.258;2023-04-15T00:57:40;97857.66;;;10.95;97.22
64294;BME280;50636;45.596;5.258;2023-04-15T01:00:06;97861.97;;;10.89;97.00
64294;BME280;50636;45.596;5.258;2023-04-15T01:02:36;97849.16;;;10.81;96.47
64294;BME280;50636;45.596;5.258;2023-04-15T01:05:03;97855.41;;;10.80;96.90
64294;BME280;50636;45.596;5.258;2023-04-15T01:07:29;97856.56;;;10.84;97.47
64294;BME280;50636;45.596;5.258;2023-04-15T01:09:56;97850.69;;;10.89;98.17
64294;BME280;50636;45.596;5.258;2023-04-15T01:12:23;97856.56;;;10.84;98.19
64294;BME280;50636;45.596;5.258;2023-04-15T01:14:51;97847.84;;;10.72;97.33
64294;BME280;50636;45.596;5.258;2023-04-15T01:17:17;97856.81;;;10.64;97.36
64294;BME280;50636;45.596;5.258;2023-04-15T01:19:43;97861.59;;;10.55;97.44
64294;BME280;50636;45.596;5.258;2023-04-15T01:22:09;97863.84;;;10.52;97.90
64294;BME280;50636;45.596;5.258;2023-04-15T01:24:35;97864.41;;;10.54;98.66
64294;BME280;50636;45.596;5.258;2023-04-15T01:27:02;97872.13;;;10.67;99.88
64294;BME280;50636;45.596;5.258;2023-04-15T01:29:30;97873.56;;;10.82;100.00
64294;BME280;50636;45.596;5.258;2023-04-15T01:31:57;97878.94;;;11.05;100.00
64294;BME280;50636;45.596;5.258;2023-04-15T01:34:22;97881.03;;;11.27;100.00
64294;BME280;50636;45.596;5.258;2023-04-15T01:36:48;97877.72;;;11.19;100.00
64294;BME280;50636;45.596;5.258;2023-04-15T01:39:14;97868.72;;;11.27;100.00
64294;BME280;50636;45.596;5.258;2023-04-15T01:41:39;97870.84;;;11.18;100.00
64294;BME280;50636;45.596;5.258;2023-04-15T01:44:07;97873.53;;;11.00;99.79
64294;BME280;50636;45.596;5.258;2023-04-15T01:46:33;97867.44;;;10.88;98.66
64294;BME280;50636;45.596;5.258;2023-04-15T01:48:58;97872.25;;;10.72;98.55
64294;BME280;50636;45.596;5.258;2023-04-15T01:51:24;97879.84;;;10.62;98.45
64294;BME280;50636;45.596;5.258;2023-04-15T01:53:50;97874.03;;;10.60;99.36
64294;BME280;50636;45.596;5.258;2023-04-15T01:56:16;97880.22;;;10.66;100.00
64294;BME280;50636;45.596;5.258;2023-04-15T01:58:43;97876.28;;;10.75;100.00
64294;BME280;50636;45.596;5.258;2023-04-15T02:01:08;97879.63;;;10.82;100.00
64294;BME280;50636;45.596;5.258;2023-04-15T02:03:36;97865.13;;;10.79;99.26
64294;BME280;50636;45.596;5.258;2023-04-15T02:06:02;97870.22;;;10.74;97.81
64294;BME280;50636;45.596;5.258;2023-04-15T02:08:29;97856.75;;;10.71;97.75
64294;BME280;50636;45.596;5.258;2023-04-15T02:10:54;97861.69;;;10.79;97.95
64294;BME280;50636;45.596;5.258;2023-04-15T02:13:20;97859.66;;;10.81;98.47
64294;BME280;50636;45.596;5.258;2023-04-15T02:15:49;97860.03;;;10.96;98.05
64294;BME280;50636;45.596;5.258;2023-04-15T02:18:16;97865.00;;;11.05;97.06
64294;BME280;50636;45.596;5.258;2023-04-15T02:20:42;97846.69;;;10.98;96.75
64294;BME280;50636;45.596;5.258;2023-04-15T02:23:08;97852.88;;;11.04;96.01
64294;BME280;50636;45.596;5.258;2023-04-15T02:25:35;97852.09;;;11.03;95.11
64294;BME280;50636;45.596;5.258;2023-04-15T02:28:01;97856.72;;;11.31;96.94
64294;BME280;50636;45.596;5.258;2023-04-15T02:30:27;97851.03;;;11.46;96.11
64294;BME280;50636;45.596;5.258;2023-04-15T02:32:52;97860.28;;;11.49;95.69
64294;BME280;50636;45.596;5.258;2023-04-15T02:35:18;97866.13;;;11.51;95.37
64294;BME280;50636;45.596;5.258;2023-04-15T02:37:44;97866.59;;;11.48;95.41
64294;BME280;50636;45.596;5.258;2023-04-15T02:40:11;97862.78;;;11.32;94.48
64294;BME280;50636;45.596;5.258;2023-04-15T02:42:40;97855.84;;;11.37;95.43
64294;BME280;50636;45.596;5.258;2023-04-15T02:45:07;97855.16;;;11.42;95.29
64294;BME280;50636;45.596;5.258;2023-04-15T02:47:33;97860.84;;;11.51;94.45
64294;BME280;50636;45.596;5.258;2023-04-15T02:50:03;97863.25;;;11.52;93.65
64294;BME280;50636;45.596;5.258;2023-04-15T02:52:28;97868.31;;;11.54;93.57
64294;BME280;50636;45.596;5.258;2023-04-15T02:54:54;97870.78;;;11.49;93.92
64294;BME280;50636;45.596;5.258;2023-04-15T02:57:25;97866.91;;;11.39;94.13
64294;BME280;50636;45.596;5.258;2023-04-15T02:59:52;97859.34;;;11.31;95.30
64294;BME280;50636;45.596;5.258;2023-04-15T03:02:17;97867.56;;;11.23;95.05
64294;BME280;50636;45.596;5.258;2023-04-15T03:04:43;97854.88;;;11.20;95.70
64294;BME280;50636;45.596;5.258;2023-04-15T03:07:09;97855.97;;;11.12;95.21
64294;BME280;50636;45.596;5.258;2023-04-15T03:09:34;97859.47;;;10.94;94.87
64294;BME280;50636;45.596;5.258;2023-04-15T03:12:01;97857.41;;;10.85;96.07
64294;BME280;50636;45.596;5.258;2023-04-15T03:14:26;97861.03;;;10.84;96.12
64294;BME280;50636;45.596;5.258;2023-04-15T03:16:52;97859.28;;;10.77;96.00
64294;BME280;50636;45.596;5.258;2023-04-15T03:19:18;97853.91;;;10.72;96.66
64294;BME280;50636;45.596;5.258;2023-04-15T03:21:43;97857.69;;;10.76;97.47
64294;BME280;50636;45.596;5.258;2023-04-15T03:24:09;97854.56;;;10.68;96.61
64294;BME280;50636;45.596;5.258;2023-04-15T03:26:35;97857.72;;;10.58;96.53
64294;BME280;50636;45.596;5.258;2023-04-15T03:29:01;97848.38;;;10.62;97.83
64294;BME280;50636;45.596;5.258;2023-04-15T03:31:26;97853.19;;;10.95;99.85
64294;BME280;50636;45.596;5.258;2023-04-15T03:33:52;97837.00;;;10.98;99.59
64294;BME280;50636;45.596;5.258;2023-04-15T03:36:18;97840.50;;;10.92;99.01
64294;BME280;50636;45.596;5.258;2023-04-15T03:38:43;97847.13;;;10.83;98.09
64294;BME280;50636;45.596;5.258;2023-04-15T03:41:09;97844.78;;;10.75;98.11
64294;BME280;50636;45.596;5.258;2023-04-15T03:43:35;97841.31;;;10.63;97.53
64294;BME280;50636;45.596;5.258;2023-04-15T03:46:01;97842.78;;;10.58;98.06
64294;BME280;50636;45.596;5.258;2023-04-15T03:48:27;97846.28;;;10.52;98.10
64294;BME280;50636;45.596;5.258;2023-04-15T03:50:52;97853.22;;;10.47;97.63
64294;BME280;50636;45.596;5.258;2023-04-15T03:53:19;97859.56;;;10.39;97.42
64294;BME280;50636;45.596;5.258;2023-04-15T03:55:45;97857.16;;;10.37;98.32
64294;BME280;50636;45.596;5.258;2023-04-15T03:58:11;97859.41;;;10.52;99.75
64294;BME280;50636;45.596;5.258;2023-04-15T04:00:38;97860.38;;;10.70;100.00
64294;BME280;50636;45.596;5.258;2023-04-15T04:03:04;97859.97;;;10.73;100.00
64294;BME280;50636;45.596;5.258;2023-04-15T04:05:29;97864.13;;;10.81;100.00
64294;BME280;50636;45.596;5.258;2023-04-15T04:07:55;97862.84;;;10.83;100.00
64294;BME280;50636;45.596;5.258;2023-04-15T04:10:21;97869.22;;;10.75;100.00
64294;BME280;50636;45.596;5.258;2023-04-15T04:12:47;97865.06;;;10.68;100.00
64294;BME280;50636;45.596;5.258;2023-04-15T04:15:12;97877.75;;;10.71;100.00
64294;BME280;50636;45.596;5.258;2023-04-15T04:17:38;97872.06;;;10.74;100.00
64294;BME280;50636;45.596;5.258;2023-04-15T04:20:04;97872.56;;;10.64;100.00
64294;BME280;50636;45.596;5.258;2023-04-15T04:22:30;97878.47;;;10.78;100.00
64294;BME280;50636;45.596;5.258;2023-04-15T04:24:56;97872.63;;;11.06;100.00
64294;BME280;50636;45.596;5.258;2023-04-15T04:27:24;97873.41;;;11.25;100.00
64294;BME280;50636;45.596;5.258;2023-04-15T04:29:50;97877.53;;;11.33;100.00
64294;BME280;50636;45.596;5.258;2023-04-15T04:32:16;97862.00;;;11.31;100.00
64294;BME280;50636;45.596;5.258;2023-04-15T04:34:41;97865.19;;;11.33;100.00
64294;BME280;50636;45.596;5.258;2023-04-15T04:37:07;97863.47;;;11.27;100.00
64294;BME280;50636;45.596;5.258;2023-04-15T04:39:33;97867.41;;;11.18;100.00
64294;BME280;50636;45.596;5.258;2023-04-15T04:41:58;97871.31;;;11.15;100.00
64294;BME280;50636;45.596;5.258;2023-04-15T04:44:24;97878.03;;;11.11;100.00
64294;BME280;50636;45.596;5.258;2023-04-15T04:46:50;97871.63;;;11.07;100.00
64294;BME280;50636;45.596;5.258;2023-04-15T04:49:15;97872.94;;;10.98;100.00
64294;BME280;50636;45.596;5.258;2023-04-15T04:51:41;97866.50;;;10.82;100.00
64294;BME280;50636;45.596;5.258;2023-04-15T04:54:07;97872.84;;;10.93;100.00
64294;BME280;50636;45.596;5.258;2023-04-15T04:56:32;97874.03;;;11.09;100.00
64294;BME280;50636;45.596;5.258;2023-04-15T04:58:59;97883.50;;;11.10;100.00
64294;BME280;50636;45.596;5.258;2023-04-15T05:01:24;97873.25;;;11.20;100.00
64294;BME280;50636;45.596;5.258;2023-04-15T05:03:52;97880.00;;;11.28;100.00
64294;BME280;50636;45.596;5.258;2023-04-15T05:06:17;97883.09;;;11.36;100.00
64294;BME280;50636;45.596;5.258;2023-04-15T05:08:43;97879.69;;;11.36;100.00
64294;BME280;50636;45.596;5.258;2023-04-15T05:11:09;97879.66;;;11.24;100.00
64294;BME280;50636;45.596;5.258;2023-04-15T05:13:34;97884.88;;;11.12;100.00
64294;BME280;50636;45.596;5.258;2023-04-15T05:16:04;97883.06;;;11.13;100.00
64294;BME280;50636;45.596;5.258;2023-04-15T05:18:30;97888.44;;;11.18;100.00
64294;BME280;50636;45.596;5.258;2023-04-15T05:20:56;97882.91;;;11.08;98.69
64294;BME280;50636;45.596;5.258;2023-04-15T05:23:22;97889.66;;;11.04;97.95
64294;BME280;50636;45.596;5.258;2023-04-15T05:25:47;97886.81;;;11.05;97.90
64294;BME280;50636;45.596;5.258;2023-04-15T05:28:13;97884.78;;;11.19;98.99
64294;BME280;50636;45.596;5.258;2023-04-15T05:30:39;97889.94;;;11.26;99.02
64294;BME280;50636;45.596;5.258;2023-04-15T05:33:04;97887.47;;;11.31;99.21
64294;BME280;50636;45.596;5.258;2023-04-15T05:35:30;97898.31;;;11.46;99.46
64294;BME280;50636;45.596;5.258;2023-04-15T05:37:56;97889.34;;;11.66;98.98
64294;BME280;50636;45.596;5.258;2023-04-15T05:40:21;97883.91;;;11.91;98.19
64294;BME280;50636;45.596;5.258;2023-04-15T05:42:47;97896.13;;;11.97;96.24
64294;BME280;50636;45.596;5.258;2023-04-15T05:45:13;97907.00;;;12.12;95.38
64294;BME280;50636;45.596;5.258;2023-04-15T05:47:39;97909.63;;;12.12;93.20
64294;BME280;50636;45.596;5.258;2023-04-15T05:50:05;97909.84;;;12.11;92.70
64294;BME280;50636;45.596;5.258;2023-04-15T05:52:31;97915.47;;;12.14;93.29
64294;BME280;50636;45.596;5.258;2023-04-15T05:54:57;97904.81;;;12.33;93.83
64294;BME280;50636;45.596;5.258;2023-04-15T05:57:22;97898.41;;;12.41;92.13
64294;BME280;50636;45.596;5.258;2023-04-15T05:59:48;97908.69;;;12.54;91.35
64294;BME280;50636;45.596;5.258;2023-04-15T06:02:16;97902.47;;;12.72;91.18
64294;BME280;50636;45.596;5.258;2023-04-15T06:04:42;97901.53;;;12.78;90.19
64294;BME280;50636;45.596;5.258;2023-04-15T06:07:08;97899.91;;;12.77;90.57
64294;BME280;50636;45.596;5.258;2023-04-15T06:09:34;97900.47;;;12.79;90.57
64294;BME280;50636;45.596;5.258;2023-04-15T06:12:00;97911.69;;;12.86;91.19
64294;BME280;50636;45.596;5.258;2023-04-15T06:14:26;97894.94;;;12.92;88.99
64294;BME280;50636;45.596;5.258;2023-04-15T06:16:52;97901.56;;;12.95;84.92
64294;BME280;50636;45.596;5.258;2023-04-15T06:19:18;97921.81;;;13.06;86.84
64294;BME280;50636;45.596;5.258;2023-04-15T06:21:44;97928.47;;;13.26;87.63
64294;BME280;50636;45.596;5.258;2023-04-15T06:24:10;97930.75;;;13.34;88.22
64294;BME280;50636;45.596;5.258;2023-04-15T06:26:36;97938.59;;;13.46;88.56
64294;BME280;50636;45.596;5.258;2023-04-15T06:29:02;97935.69;;;13.59;88.89
64294;BME280;50636;45.596;5.258;2023-04-15T06:31:28;97946.97;;;13.71;88.11
64294;BME280;50636;45.596;5.258;2023-04-15T06:33:54;97946.63;;;13.68;86.70
64294;BME280;50636;45.596;5.258;2023-04-15T06:36:20;97943.84;;;13.74;87.03
64294;BME280;50636;45.596;5.258;2023-04-15T06:38:46;97951.13;;;13.84;86.83
64294;BME280;50636;45.596;5.258;2023-04-15T06:41:12;97944.56;;;13.70;87.44
64294;BME280;50636;45.596;5.258;2023-04-15T06:43:38;97950.66;;;13.42;85.97
64294;BME280;50636;45.596;5.258;2023-04-15T06:46:04;97960.66;;;13.28;85.73
64294;BME280;50636;45.596;5.258;2023-04-15T06:48:29;97967.44;;;13.24;86.21
64294;BME280;50636;45.596;5.258;2023-04-15T06:50:55;97978.97;;;13.46;85.84
64294;BME280;50636;45.596;5.258;2023-04-15T06:53:24;97973.56;;;13.70;80.92
64294;BME280;50636;45.596;5.258;2023-04-15T06:55:51;97983.25;;;13.81;82.64
64294;BME280;50636;45.596;5.258;2023-04-15T06:58:17;97990.78;;;13.89;82.76
64294;BME280;50636;45.596;5.258;2023-04-15T07:00:42;97990.31;;;13.92;82.28
64294;BME280;50636;45.596;5.258;2023-04-15T07:03:09;97994.84;;;13.97;82.34
64294;BME280;50636;45.596;5.258;2023-04-15T07:05:35;98000.19;;;14.02;81.87
64294;BME280;50636;45.596;5.258;2023-04-15T07:08:01;98005.00;;;14.05;81.63
64294;BME280;50636;45.596;5.258;2023-04-15T07:10:26;97998.63;;;14.01;80.32
64294;BME280;50636;45.596;5.258;2023-04-15T07:12:52;98016.75;;;13.97;79.57
64294;BME280;50636;45.596;5.258;2023-04-15T07:15:18;98016.84;;;14.03;78.66
64294;BME280;50636;45.596;5.258;2023-04-15T07:17:43;98024.28;;;14.06;77.83
64294;BME280;50636;45.596;5.258;2023-04-15T07:20:09;98020.78;;;14.17;75.33
64294;BME280;50636;45.596;5.258;2023-04-15T07:22:35;98025.88;;;14.24;74.17
64294;BME280;50636;45.596;5.258;2023-04-15T07:25:01;98020.59;;;14.24;73.68
64294;BME280;50636;45.596;5.258;2023-04-15T07:27:27;98027.97;;;14.22;73.65
64294;BME280;50636;45.596;5.258;2023-04-15T07:29:52;98038.75;;;14.20;72.92
64294;BME280;50636;45.596;5.258;2023-04-15T07:32:18;98039.56;;;14.21;73.12
64294;BME280;50636;45.596;5.258;2023-04-15T07:34:44;98036.59;;;14.17;71.68
64294;BME280;50636;45.596;5.258;2023-04-15T07:37:10;98034.50;;;14.36;72.11
64294;BME280;50636;45.596;5.258;2023-04-15T07:39:36;98031.47;;;14.78;71.68
64294;BME280;50636;45.596;5.258;2023-04-15T07:42:02;98044.16;;;15.69;69.95
64294;BME280;50636;45.596;5.258;2023-04-15T07:44:29;98034.75;;;16.06;66.11
64294;BME280;50636;45.596;5.258;2023-04-15T07:46:55;98048.78;;;16.06;66.81
64294;BME280;50636;45.596;5.258;2023-04-15T07:49:21;98039.13;;;15.90;67.35
64294;BME280;50636;45.596;5.258;2023-04-15T07:51:47;98055.88;;;15.73;68.83
64294;BME280;50636;45.596;5.258;2023-04-15T07:54:14;98053.81;;;15.75;69.00
64294;BME280;50636;45.596;5.258;2023-04-15T07:56:40;98057.94;;;15.71;69.27
64294;BME280;50636;45.596;5.258;2023-04-15T07:59:06;98058.69;;;15.67;66.38
64294;BME280;50636;45.596;5.258;2023-04-15T08:01:33;98052.59;;;15.66;67.84
64294;BME280;50636;45.596;5.258;2023-04-15T08:03:59;98051.06;;;15.70;67.44
64294;BME280;50636;45.596;5.258;2023-04-15T08:06:25;98059.88;;;15.76;66.16
64294;BME280;50636;45.596;5.258;2023-04-15T08:08:52;98053.72;;;15.70;65.93
64294;BME280;50636;45.596;5.258;2023-04-15T08:11:19;98060.38;;;15.73;64.82
64294;BME280;50636;45.596;5.258;2023-04-15T08:13:46;98061.00;;;15.85;64.54
64294;BME280;50636;45.596;5.258;2023-04-15T08:16:19;98074.19;;;16.07;63.04
64294;BME280;50636;45.596;5.258;2023-04-15T08:18:50;98075.72;;;16.30;61.04
64294;BME280;50636;45.596;5.258;2023-04-15T08:21:18;98080.25;;;16.30;59.42
64294;BME280;50636;45.596;5.258;2023-04-15T08:23:45;98074.50;;;16.11;59.74
64294;BME280;50636;45.596;5.258;2023-04-15T08:26:11;98080.25;;;16.03;54.59
64294;BME280;50636;45.596;5.258;2023-04-15T08:28:38;98074.72;;;16.04;52.92
64294;BME280;50636;45.596;5.258;2023-04-15T08:31:05;98093.69;;;15.96;51.91
64294;BME280;50636;45.596;5.258;2023-04-15T08:33:30;98106.09;;;15.95;55.23
64294;BME280;50636;45.596;5.258;2023-04-15T08:35:56;98102.06;;;15.88;54.50
64294;BME280;50636;45.596;5.258;2023-04-15T08:38:22;98101.56;;;15.91;53.02
64294;BME280;50636;45.596;5.258;2023-04-15T08:40:48;98117.53;;;15.74;51.29
64294;BME280;50636;45.596;5.258;2023-04-15T08:43:21;98111.34;;;15.68;51.37
64294;BME280;50636;45.596;5.258;2023-04-15T08:45:51;98119.66;;;15.99;51.33
64294;BME280;50636;45.596;5.258;2023-04-15T08:48:18;98117.47;;;16.18;50.30
64294;BME280;50636;45.596;5.258;2023-04-15T08:50:45;98115.44;;;16.30;50.00
64294;BME280;50636;45.596;5.258;2023-04-15T08:53:11;98120.44;;;16.59;49.83
64294;BME280;50636;45.596;5.258;2023-04-15T08:55:42;98122.25;;;16.86;48.90
64294;BME280;50636;45.596;5.258;2023-04-15T08:58:09;98124.03;;;17.12;49.74
64294;BME280;50636;45.596;5.258;2023-04-15T09:00:36;98117.25;;;16.89;49.53
64294;BME280;50636;45.596;5.258;2023-04-15T09:03:04;98111.88;;;16.47;52.46
64294;BME280;50636;45.596;5.258;2023-04-15T09:05:35;98128.94;;;16.02;52.15
64294;BME280;50636;45.596;5.258;2023-04-15T09:08:01;98140.75;;;15.72;55.19
64294;BME280;50636;45.596;5.258;2023-04-15T09:10:27;98131.66;;;15.63;55.90
64294;BME280;50636;45.596;5.258;2023-04-15T09:12:54;98131.72;;;15.68;54.05
64294;BME280;50636;45.596;5.258;2023-04-15T09:15:20;98125.44;;;15.96;51.57
64294;BME280;50636;45.596;5.258;2023-04-15T09:17:47;98127.59;;;16.58;47.94
64294;BME280;50636;45.596;5.258;2023-04-15T09:20:14;98133.13;;;17.32;46.49
64294;BME280;50636;45.596;5.258;2023-04-15T09:22:41;98137.97;;;18.19;45.33
64294;BME280;50636;45.596;5.258;2023-04-15T09:27:59;98136.38;;;19.15;42.84
64294;BME280;50636;45.596;5.258;2023-04-15T09:30:29;98143.78;;;19.39;41.12
64294;BME280;50636;45.596;5.258;2023-04-15T09:33:00;98145.25;;;19.81;39.84
64294;BME280;50636;45.596;5.258;2023-04-15T09:35:35;98142.59;;;19.65;39.10
64294;BME280;50636;45.596;5.258;2023-04-15T09:38:04;98150.13;;;19.48;39.05
64294;BME280;50636;45.596;5.258;2023-04-15T09:40:31;98153.41;;;19.24;38.23
64294;BME280;50636;45.596;5.258;2023-04-15T09:43:01;98160.09;;;18.81;38.75
64294;BME280;50636;45.596;5.258;2023-04-15T09:45:28;98151.25;;;18.29;39.99
64294;BME280;50636;45.596;5.258;2023-04-15T09:47:56;98162.25;;;17.74;39.64
64294;BME280;50636;45.596;5.258;2023-04-15T09:50:26;98175.28;;;17.28;40.66
64294;BME280;50636;45.596;5.258;2023-04-15T09:52:54;98166.53;;;16.85;42.16
64294;BME280;50636;45.596;5.258;2023-04-15T09:55:20;98173.53;;;16.69;42.70
64294;BME280;50636;45.596;5.258;2023-04-15T09:57:46;98165.72;;;16.85;42.82
64294;BME280;50636;45.596;5.258;2023-04-15T10:00:12;98171.41;;;16.99;42.89
64294;BME280;50636;45.596;5.258;2023-04-15T10:02:42;98172.66;;;16.91;43.06
64294;BME280;50636;45.596;5.258;2023-04-15T10:05:13;98172.34;;;16.82;43.34
64294;BME280;50636;45.596;5.258;2023-04-15T10:07:39;98174.00;;;16.93;44.20
64294;BME280;50636;45.596;5.258;2023-04-15T10:10:07;98172.84;;;17.16;42.35
64294;BME280;50636;45.596;5.258;2023-04-15T10:12:36;98168.63;;;17.21;41.72
64294;BME280;50636;45.596;5.258;2023-04-15T10:15:05;98171.81;;;17.23;41.94
64294;BME280;50636;45.596;5.258;2023-04-15T10:17:33;98167.53;;;17.16;42.84
64294;BME280;50636;45.596;5.258;2023-04-15T10:20:02;98170.19;;;17.16;48.71
64294;BME280;50636;45.596;5.258;2023-04-15T10:22:29;98184.59;;;16.88;50.31
64294;BME280;50636;45.596;5.258;2023-04-15T10:24:56;98187.91;;;16.46;51.90
64294;BME280;50636;45.596;5.258;2023-04-15T10:27:22;98195.19;;;16.34;53.18
64294;BME280;50636;45.596;5.258;2023-04-15T10:29:50;98190.56;;;16.46;52.20
64294;BME280;50636;45.596;5.258;2023-04-15T10:32:18;98199.75;;;16.38;49.57
64294;BME280;50636;45.596;5.258;2023-04-15T10:34:47;98176.59;;;16.29;48.66
64294;BME280;50636;45.596;5.258;2023-04-15T10:37:32;98185.81;;;15.99;45.94
64294;BME280;50636;45.596;5.258;2023-04-15T10:39:58;98188.69;;;15.53;45.98
64294;BME280;50636;45.596;5.258;2023-04-15T10:42:23;98205.22;;;15.27;48.38
64294;BME280;50636;45.596;5.258;2023-04-15T10:44:51;98207.16;;;15.70;50.07
64294;BME280;50636;45.596;5.258;2023-04-15T10:47:21;98213.44;;;16.30;50.21
64294;BME280;50636;45.596;5.258;2023-04-15T10:49:51;98205.03;;;16.38;50.13
64294;BME280;50636;45.596;5.258;2023-04-15T10:52:22;98211.19;;;16.44;48.85
64294;BME280;50636;45.596;5.258;2023-04-15T10:54:48;98211.41;;;16.15;48.01
64294;BME280;50636;45.596;5.258;2023-04-15T10:57:21;98220.41;;;16.14;48.35
64294;BME280;50636;45.596;5.258;2023-04-15T11:00:01;98218.91;;;16.24;50.74
64294;BME280;50636;45.596;5.258;2023-04-15T11:05:15;98215.84;;;16.32;51.82
64294;BME280;50636;45.596;5.258;2023-04-15T11:07:52;98228.53;;;15.86;52.57
64294;BME280;50636;45.596;5.258;2023-04-15T11:12:59;98237.50;;;15.46;54.75
64294;BME280;50636;45.596;5.258;2023-04-15T11:15:32;98228.31;;;15.70;53.87
64294;BME280;50636;45.596;5.258;2023-04-15T11:18:19;98248.78;;;15.97;52.22
64294;BME280;50636;45.596;5.258;2023-04-15T11:20:54;98241.09;;;16.72;50.35
64294;BME280;50636;45.596;5.258;2023-04-15T11:23:40;98230.38;;;17.58;45.70
64294;BME280;50636;45.596;5.258;2023-04-15T11:26:09;98226.47;;;18.40;41.76
64294;BME280;50636;45.596;5.258;2023-04-15T11:28:37;98216.19;;;18.89;40.25
64294;BME280;50636;45.596;5.258;2023-04-15T11:31:08;98220.44;;;19.26;40.13
64294;BME280;50636;45.596;5.258;2023-04-15T11:33:35;98232.41;;;19.19;39.75
64294;BME280;50636;45.596;5.258;2023-04-15T11:36:00;98234.75;;;18.64;39.38
64294;BME280;50636;45.596;5.258;2023-04-15T11:38:27;98241.19;;;17.94;41.68
64294;BME280;50636;45.596;5.258;2023-04-15T11:40:53;98241.81;;;17.22;43.79
64294;BME280;50636;45.596;5.258;2023-04-15T11:43:20;98240.50;;;16.92;42.99
64294;BME280;50636;45.596;5.258;2023-04-15T11:45:50;98241.41;;;16.75;43.03
64294;BME280;50636;45.596;5.258;2023-04-15T11:48:17;98243.97;;;16.65;43.11
64294;BME280;50636;45.596;5.258;2023-04-15T11:50:43;98238.31;;;16.56;44.09
64294;BME280;50636;45.596;5.258;2023-04-15T11:53:11;98241.16;;;16.50;47.64
64294;BME280;50636;45.596;5.258;2023-04-15T11:58:22;98245.84;;;16.70;45.06
64294;BME280;50636;45.596;5.258;2023-04-15T12:00:53;98243.78;;;17.36;43.77
64294;BME280;50636;45.596;5.258;2023-04-15T12:03:25;98251.56;;;17.91;41.95
64294;BME280;50636;45.596;5.258;2023-04-15T12:06:16;98255.66;;;18.24;41.74
64294;BME280;50636;45.596;5.258;2023-04-15T12:13:56;98271.81;;;18.12;43.51
64294;BME280;50636;45.596;5.258;2023-04-15T12:16:23;98277.03;;;17.87;43.32
64294;BME280;50636;45.596;5.258;2023-04-15T12:18:54;98283.03;;;17.77;44.55
64294;BME280;50636;45.596;5.258;2023-04-15T12:21:31;98286.91;;;17.59;46.90
64294;BME280;50636;45.596;5.258;2023-04-15T12:24:01;98295.44;;;17.66;48.97
64294;BME280;50636;45.596;5.258;2023-04-15T12:26:42;98287.19;;;18.10;45.40
64294;BME280;50636;45.596;5.258;2023-04-15T12:29:08;98292.41;;;18.53;42.86
64294;BME280;50636;45.596;5.258;2023-04-15T12:31:34;98289.78;;;18.68;41.88
64294;BME280;50636;45.596;5.258;2023-04-15T12:34:06;98287.13;;;18.79;40.26
64294;BME280;50636;45.596;5.258;2023-04-15T12:36:33;98301.50;;;18.67;41.01
64294;BME280;50636;45.596;5.258;2023-04-15T12:39:05;98293.44;;;18.47;40.70
64294;BME280;50636;45.596;5.258;2023-04-15T12:41:31;98299.22;;;18.23;41.23
64294;BME280;50636;45.596;5.258;2023-04-15T12:43:58;98294.03;;;17.91;42.03
64294;BME280;50636;45.596;5.258;2023-04-15T12:46:24;98299.34;;;17.53;42.17
64294;BME280;50636;45.596;5.258;2023-04-15T12:48:50;98301.78;;;17.23;43.22
64294;BME280;50636;45.596;5.258;2023-04-15T12:51:19;98309.38;;;17.14;43.83
64294;BME280;50636;45.596;5.258;2023-04-15T12:53:47;98307.72;;;17.08;44.70
64294;BME280;50636;45.596;5.258;2023-04-15T12:56:14;98305.13;;;16.86;44.88
64294;BME280;50636;45.596;5.258;2023-04-15T12:58:43;98317.19;;;16.49;46.85
64294;BME280;50636;45.596;5.258;2023-04-15T13:01:09;98310.19;;;16.16;48.42
64294;BME280;50636;45.596;5.258;2023-04-15T13:03:35;98324.56;;;16.03;46.82
64294;BME280;50636;45.596;5.258;2023-04-15T13:06:01;98333.44;;;16.14;47.21
64294;BME280;50636;45.596;5.258;2023-04-15T13:08:29;98327.22;;;16.25;45.95
64294;BME280;50636;45.596;5.258;2023-04-15T13:10:55;98326.91;;;16.22;44.80
64294;BME280;50636;45.596;5.258;2023-04-15T13:13:21;98332.41;;;16.37;44.02
64294;BME280;50636;45.596;5.258;2023-04-15T13:15:47;98333.28;;;16.43;44.11